首页
METAR-TAF:

METAR-TAF

机场 :

York Airport

约克, 宾夕法尼亚州, 美国

纬度: 39-55-10N, 经度: 076-52-37W, 海拔: 146米

当前天气观测

该预报发布于37分钟前的19:53 UTC
风速16节,风向西北,有时为20节阵风
温度 22°C
湿度 31%
气压 1022 hPa
能見度: 16.1公里
天空无云

METAR: KTHV 011953Z AUTO 31016G20KT 10SM CLR 22/04 A3017 RMK AO2 SLP219 T02220039

时间: 16:30 (20:30 UTC)


TAF: 丢失

超过4000个机场的气象观测和天气预报(METAR&TAF报告)。

可查询的气象台以黄色和红色小点在地图上表示。

将鼠标移到小点上方,可查看气象台名称。

然后点击查看天气观测和预报。

如需切换地图:点击带黑十字的绿色按钮放大地图;点击带横线的绿色按钮缩小地图;或者点击绿色箭头查看邻近地区的地图。


METAR-TAF: